sensor_id;sensor_type;location;lat;lon;timestamp;temperature;humidity
12119;DHT22;6123;48.864;9.200;2023-11-21T00:02:15;8.60;99.90
12119;DHT22;6123;48.864;9.200;2023-11-21T00:04:40;8.60;99.90
12119;DHT22;6123;48.864;9.200;2023-11-21T00:07:06;8.60;99.90
12119;DHT22;6123;48.864;9.200;2023-11-21T00:09:32;8.60;99.90
12119;DHT22;6123;48.864;9.200;2023-11-21T00:11:57;8.60;99.90
12119;DHT22;6123;48.864;9.200;2023-11-21T00:14:24;8.70;99.90
12119;DHT22;6123;48.864;9.200;2023-11-21T00:16:50;8.60;99.90
12119;DHT22;6123;48.864;9.200;2023-11-21T00:19:15;8.70;99.90
12119;DHT22;6123;48.864;9.200;2023-11-21T00:21:42;8.70;99.90
12119;DHT22;6123;48.864;9.200;2023-11-21T00:24:09;8.70;99.90
12119;DHT22;6123;48.864;9.200;2023-11-21T00:26:35;8.70;99.90
12119;DHT22;6123;48.864;9.200;2023-11-21T00:29:03;8.70;99.90
12119;DHT22;6123;48.864;9.200;2023-11-21T00:31:29;8.70;99.90
12119;DHT22;6123;48.864;9.200;2023-11-21T00:33:56;8.70;99.90
12119;DHT22;6123;48.864;9.200;2023-11-21T00:36:21;8.70;99.90
12119;DHT22;6123;48.864;9.200;2023-11-21T00:38:47;8.70;99.90
12119;DHT22;6123;48.864;9.200;2023-11-21T00:41:13;8.70;99.90
12119;DHT22;6123;48.864;9.200;2023-11-21T00:43:39;8.70;99.90
12119;DHT22;6123;48.864;9.200;2023-11-21T00:46:05;8.90;99.90
12119;DHT22;6123;48.864;9.200;2023-11-21T00:48:34;8.80;99.90
12119;DHT22;6123;48.864;9.200;2023-11-21T00:50:59;8.90;99.90
12119;DHT22;6123;48.864;9.200;2023-11-21T00:53:25;8.80;99.90
12119;DHT22;6123;48.864;9.200;2023-11-21T00:55:51;8.80;99.90
12119;DHT22;6123;48.864;9.200;2023-11-21T00:58:23;8.80;99.90
12119;DHT22;6123;48.864;9.200;2023-11-21T01:00:48;8.80;99.90
12119;DHT22;6123;48.864;9.200;2023-11-21T01:03:14;8.80;99.90
12119;DHT22;6123;48.864;9.200;2023-11-21T01:05:39;8.80;99.90
12119;DHT22;6123;48.864;9.200;2023-11-21T01:08:05;8.80;99.90
12119;DHT22;6123;48.864;9.200;2023-11-21T01:10:31;8.80;99.90
12119;DHT22;6123;48.864;9.200;2023-11-21T01:12:56;8.80;99.90
12119;DHT22;6123;48.864;9.200;2023-11-21T01:15:23;8.80;99.90
12119;DHT22;6123;48.864;9.200;2023-11-21T01:17:48;8.80;99.90
12119;DHT22;6123;48.864;9.200;2023-11-21T01:20:14;8.80;99.90
12119;DHT22;6123;48.864;9.200;2023-11-21T01:22:39;8.80;99.90
12119;DHT22;6123;48.864;9.200;2023-11-21T01:25:05;8.80;99.90
12119;DHT22;6123;48.864;9.200;2023-11-21T01:27:35;8.80;99.90
12119;DHT22;6123;48.864;9.200;2023-11-21T01:30:04;8.80;99.90
12119;DHT22;6123;48.864;9.200;2023-11-21T01:32:30;8.90;99.90
12119;DHT22;6123;48.864;9.200;2023-11-21T01:34:55;8.80;99.90
12119;DHT22;6123;48.864;9.200;2023-11-21T01:37:21;8.80;99.90
12119;DHT22;6123;48.864;9.200;2023-11-21T01:39:47;8.80;99.90
12119;DHT22;6123;48.864;9.200;2023-11-21T01:42:13;8.80;99.90
12119;DHT22;6123;48.864;9.200;2023-11-21T01:44:39;8.70;99.90
12119;DHT22;6123;48.864;9.200;2023-11-21T01:47:08;8.70;99.90
12119;DHT22;6123;48.864;9.200;2023-11-21T01:49:35;8.80;99.90
12119;DHT22;6123;48.864;9.200;2023-11-21T01:52:01;8.80;99.90
12119;DHT22;6123;48.864;9.200;2023-11-21T01:54:27;8.80;99.90
12119;DHT22;6123;48.864;9.200;2023-11-21T01:56:58;8.90;99.90
12119;DHT22;6123;48.864;9.200;2023-11-21T01:59:37;8.80;99.90
12119;DHT22;6123;48.864;9.200;2023-11-21T02:02:06;8.80;99.90
12119;DHT22;6123;48.864;9.200;2023-11-21T02:04:33;8.80;99.90
12119;DHT22;6123;48.864;9.200;2023-11-21T02:07:00;8.80;99.90
12119;DHT22;6123;48.864;9.200;2023-11-21T02:09:29;8.80;99.90
12119;DHT22;6123;48.864;9.200;2023-11-21T02:11:59;8.80;99.90
12119;DHT22;6123;48.864;9.200;2023-11-21T02:14:28;8.90;99.90
12119;DHT22;6123;48.864;9.200;2023-11-21T02:16:54;8.90;99.90
12119;DHT22;6123;48.864;9.200;2023-11-21T02:19:21;8.90;99.90
12119;DHT22;6123;48.864;9.200;2023-11-21T02:21:56;8.90;99.90
12119;DHT22;6123;48.864;9.200;2023-11-21T02:24:26;8.90;99.90
12119;DHT22;6123;48.864;9.200;2023-11-21T02:26:52;9.00;99.90
12119;DHT22;6123;48.864;9.200;2023-11-21T02:29:18;9.00;99.90
12119;DHT22;6123;48.864;9.200;2023-11-21T02:31:47;9.00;99.90
12119;DHT22;6123;48.864;9.200;2023-11-21T02:34:14;8.90;99.90
12119;DHT22;6123;48.864;9.200;2023-11-21T02:36:40;9.00;99.90
12119;DHT22;6123;48.864;9.200;2023-11-21T02:39:08;9.00;99.90
12119;DHT22;6123;48.864;9.200;2023-11-21T02:41:34;9.00;99.90
12119;DHT22;6123;48.864;9.200;2023-11-21T02:44:00;9.10;99.90
12119;DHT22;6123;48.864;9.200;2023-11-21T02:46:25;9.00;99.90
12119;DHT22;6123;48.864;9.200;2023-11-21T02:48:51;9.00;99.90
12119;DHT22;6123;48.864;9.200;2023-11-21T02:51:19;9.00;99.90
12119;DHT22;6123;48.864;9.200;2023-11-21T02:53:44;9.00;99.90
12119;DHT22;6123;48.864;9.200;2023-11-21T02:56:12;9.00;99.90
12119;DHT22;6123;48.864;9.200;2023-11-21T02:58:37;9.00;99.90
12119;DHT22;6123;48.864;9.200;2023-11-21T03:01:04;9.00;99.90
12119;DHT22;6123;48.864;9.200;2023-11-21T03:03:32;9.00;99.90
12119;DHT22;6123;48.864;9.200;2023-11-21T03:05:58;8.90;99.90
12119;DHT22;6123;48.864;9.200;2023-11-21T03:08:23;9.00;99.90
12119;DHT22;6123;48.864;9.200;2023-11-21T03:10:49;8.90;99.90
12119;DHT22;6123;48.864;9.200;2023-11-21T03:13:14;8.90;99.90
12119;DHT22;6123;48.864;9.200;2023-11-21T03:15:40;9.00;99.90
12119;DHT22;6123;48.864;9.200;2023-11-21T03:18:05;9.00;99.90
12119;DHT22;6123;48.864;9.200;2023-11-21T03:20:31;9.00;99.90
12119;DHT22;6123;48.864;9.200;2023-11-21T03:22:56;9.00;99.90
12119;DHT22;6123;48.864;9.200;2023-11-21T03:25:22;9.00;99.90
12119;DHT22;6123;48.864;9.200;2023-11-21T03:27:49;9.00;99.90
12119;DHT22;6123;48.864;9.200;2023-11-21T03:30:15;8.90;99.90
12119;DHT22;6123;48.864;9.200;2023-11-21T03:32:42;8.90;99.90
12119;DHT22;6123;48.864;9.200;2023-11-21T03:35:07;9.00;99.90
12119;DHT22;6123;48.864;9.200;2023-11-21T03:37:33;9.00;99.90
12119;DHT22;6123;48.864;9.200;2023-11-21T03:39:58;9.00;99.90
12119;DHT22;6123;48.864;9.200;2023-11-21T03:42:24;9.10;99.90
12119;DHT22;6123;48.864;9.200;2023-11-21T03:44:52;9.00;99.90
12119;DHT22;6123;48.864;9.200;2023-11-21T03:47:18;9.10;99.90
12119;DHT22;6123;48.864;9.200;2023-11-21T03:49:45;9.10;99.90
12119;DHT22;6123;48.864;9.200;2023-11-21T03:52:11;9.00;99.90
12119;DHT22;6123;48.864;9.200;2023-11-21T03:54:37;9.00;99.90
12119;DHT22;6123;48.864;9.200;2023-11-21T03:57:02;9.00;99.90
12119;DHT22;6123;48.864;9.200;2023-11-21T03:59:28;9.00;99.90
12119;DHT22;6123;48.864;9.200;2023-11-21T04:01:56;9.00;99.90
12119;DHT22;6123;48.864;9.200;2023-11-21T04:04:22;9.00;99.90
12119;DHT22;6123;48.864;9.200;2023-11-21T04:06:47;9.00;99.90
12119;DHT22;6123;48.864;9.200;2023-11-21T04:09:13;9.00;99.90
12119;DHT22;6123;48.864;9.200;2023-11-21T04:11:38;8.90;99.90
12119;DHT22;6123;48.864;9.200;2023-11-21T04:14:04;8.80;99.90
12119;DHT22;6123;48.864;9.200;2023-11-21T04:16:30;8.80;99.90
12119;DHT22;6123;48.864;9.200;2023-11-21T04:18:55;8.70;99.90
12119;DHT22;6123;48.864;9.200;2023-11-21T04:21:22;8.70;99.90
12119;DHT22;6123;48.864;9.200;2023-11-21T04:23:48;8.80;99.90
12119;DHT22;6123;48.864;9.200;2023-11-21T04:26:13;8.80;99.90
12119;DHT22;6123;48.864;9.200;2023-11-21T04:28:39;8.80;99.90
12119;DHT22;6123;48.864;9.200;2023-11-21T04:31:04;8.80;99.90
12119;DHT22;6123;48.864;9.200;2023-11-21T04:33:30;8.80;99.90
12119;DHT22;6123;48.864;9.200;2023-11-21T04:35:56;8.70;99.90
12119;DHT22;6123;48.864;9.200;2023-11-21T04:38:22;8.70;99.90
12119;DHT22;6123;48.864;9.200;2023-11-21T04:40:47;8.70;99.90
12119;DHT22;6123;48.864;9.200;2023-11-21T04:43:13;8.70;99.90
12119;DHT22;6123;48.864;9.200;2023-11-21T04:45:38;8.70;99.90
12119;DHT22;6123;48.864;9.200;2023-11-21T04:48:05;8.70;99.90
12119;DHT22;6123;48.864;9.200;2023-11-21T04:50:32;8.80;99.90
12119;DHT22;6123;48.864;9.200;2023-11-21T04:52:57;8.70;99.90
12119;DHT22;6123;48.864;9.200;2023-11-21T04:55:23;8.70;99.90
12119;DHT22;6123;48.864;9.200;2023-11-21T04:57:48;8.70;99.90
12119;DHT22;6123;48.864;9.200;2023-11-21T05:00:14;8.80;99.90
12119;DHT22;6123;48.864;9.200;2023-11-21T05:02:41;7.50;99.90
12119;DHT22;6123;48.864;9.200;2023-11-21T05:05:07;8.80;99.90
12119;DHT22;6123;48.864;9.200;2023-11-21T05:07:33;8.80;99.90
12119;DHT22;6123;48.864;9.200;2023-11-21T05:10:00;8.70;99.90
12119;DHT22;6123;48.864;9.200;2023-11-21T05:12:31;8.80;99.90
12119;DHT22;6123;48.864;9.200;2023-11-21T05:15:04;8.70;99.90
12119;DHT22;6123;48.864;9.200;2023-11-21T05:17:37;8.70;99.90
12119;DHT22;6123;48.864;9.200;2023-11-21T05:20:04;8.70;99.90
12119;DHT22;6123;48.864;9.200;2023-11-21T05:22:34;8.60;99.90
12119;DHT22;6123;48.864;9.200;2023-11-21T05:25:00;8.60;99.90
12119;DHT22;6123;48.864;9.200;2023-11-21T05:27:25;8.50;99.90
12119;DHT22;6123;48.864;9.200;2023-11-21T05:29:51;8.70;99.90
12119;DHT22;6123;48.864;9.200;2023-11-21T05:32:16;8.50;99.90
12119;DHT22;6123;48.864;9.200;2023-11-21T05:34:42;8.50;99.90
12119;DHT22;6123;48.864;9.200;2023-11-21T05:37:08;8.50;99.90
12119;DHT22;6123;48.864;9.200;2023-11-21T05:39:33;8.60;99.90
12119;DHT22;6123;48.864;9.200;2023-11-21T05:41:59;8.60;99.90
12119;DHT22;6123;48.864;9.200;2023-11-21T05:44:25;8.60;99.90
12119;DHT22;6123;48.864;9.200;2023-11-21T05:46:51;8.60;99.90
12119;DHT22;6123;48.864;9.200;2023-11-21T05:49:16;8.50;99.90
12119;DHT22;6123;48.864;9.200;2023-11-21T05:51:42;8.60;99.90
12119;DHT22;6123;48.864;9.200;2023-11-21T05:54:07;8.60;99.90
12119;DHT22;6123;48.864;9.200;2023-11-21T05:56:33;8.60;99.90
12119;DHT22;6123;48.864;9.200;2023-11-21T05:58:59;8.60;99.90
12119;DHT22;6123;48.864;9.200;2023-11-21T06:01:25;8.60;99.90
12119;DHT22;6123;48.864;9.200;2023-11-21T06:03:54;8.60;99.90
12119;DHT22;6123;48.864;9.200;2023-11-21T06:06:20;8.60;99.90
12119;DHT22;6123;48.864;9.200;2023-11-21T06:08:48;8.60;99.90
12119;DHT22;6123;48.864;9.200;2023-11-21T06:11:14;8.60;99.90
12119;DHT22;6123;48.864;9.200;2023-11-21T06:13:39;8.60;99.90
12119;DHT22;6123;48.864;9.200;2023-11-21T06:16:05;8.60;99.90
12119;DHT22;6123;48.864;9.200;2023-11-21T06:18:31;8.60;99.90
12119;DHT22;6123;48.864;9.200;2023-11-21T06:20:56;8.60;99.90
12119;DHT22;6123;48.864;9.200;2023-11-21T06:23:22;8.50;99.90
12119;DHT22;6123;48.864;9.200;2023-11-21T06:25:47;8.50;99.90
12119;DHT22;6123;48.864;9.200;2023-11-21T06:28:14;8.50;99.90
12119;DHT22;6123;48.864;9.200;2023-11-21T06:30:43;8.50;99.90
12119;DHT22;6123;48.864;9.200;2023-11-21T06:33:09;8.50;99.90
12119;DHT22;6123;48.864;9.200;2023-11-21T06:35:35;8.50;99.90
12119;DHT22;6123;48.864;9.200;2023-11-21T06:38:00;8.50;99.90
12119;DHT22;6123;48.864;9.200;2023-11-21T06:40:26;8.60;99.90
12119;DHT22;6123;48.864;9.200;2023-11-21T06:42:51;8.60;99.90
12119;DHT22;6123;48.864;9.200;2023-11-21T06:45:17;8.60;99.90
12119;DHT22;6123;48.864;9.200;2023-11-21T06:47:43;8.60;99.90
12119;DHT22;6123;48.864;9.200;2023-11-21T06:50:08;8.60;99.90
12119;DHT22;6123;48.864;9.200;2023-11-21T06:52:34;8.70;99.90
12119;DHT22;6123;48.864;9.200;2023-11-21T06:54:59;8.60;99.90
12119;DHT22;6123;48.864;9.200;2023-11-21T06:57:25;8.70;99.90
12119;DHT22;6123;48.864;9.200;2023-11-21T06:59:51;8.70;99.90
12119;DHT22;6123;48.864;9.200;2023-11-21T07:02:16;8.60;99.90
12119;DHT22;6123;48.864;9.200;2023-11-21T07:04:44;8.60;99.90
12119;DHT22;6123;48.864;9.200;2023-11-21T07:07:10;8.60;99.90
12119;DHT22;6123;48.864;9.200;2023-11-21T07:09:36;8.70;99.90
12119;DHT22;6123;48.864;9.200;2023-11-21T07:12:01;8.70;99.90
12119;DHT22;6123;48.864;9.200;2023-11-21T07:14:29;8.70;99.90
12119;DHT22;6123;48.864;9.200;2023-11-21T07:16:54;8.70;99.90
12119;DHT22;6123;48.864;9.200;2023-11-21T07:19:20;8.70;99.90
12119;DHT22;6123;48.864;9.200;2023-11-21T07:21:47;8.80;99.90
12119;DHT22;6123;48.864;9.200;2023-11-21T07:24:15;8.90;99.90
12119;DHT22;6123;48.864;9.200;2023-11-21T07:26:41;8.80;99.90
12119;DHT22;6123;48.864;9.200;2023-11-21T07:29:06;8.90;99.90
12119;DHT22;6123;48.864;9.200;2023-11-21T07:31:32;8.80;99.90
12119;DHT22;6123;48.864;9.200;2023-11-21T07:34:00;8.90;99.90
12119;DHT22;6123;48.864;9.200;2023-11-21T07:36:26;8.90;99.90
12119;DHT22;6123;48.864;9.200;2023-11-21T07:38:52;8.90;99.90
12119;DHT22;6123;48.864;9.200;2023-11-21T07:41:18;8.90;99.90
12119;DHT22;6123;48.864;9.200;2023-11-21T07:43:44;9.00;99.90
12119;DHT22;6123;48.864;9.200;2023-11-21T07:46:11;9.00;99.90
12119;DHT22;6123;48.864;9.200;2023-11-21T07:48:38;9.10;99.90
12119;DHT22;6123;48.864;9.200;2023-11-21T07:51:04;9.10;99.90
12119;DHT22;6123;48.864;9.200;2023-11-21T07:53:30;9.00;99.90
12119;DHT22;6123;48.864;9.200;2023-11-21T07:56:13;9.10;99.90
12119;DHT22;6123;48.864;9.200;2023-11-21T07:58:39;9.20;99.90
12119;DHT22;6123;48.864;9.200;2023-11-21T08:01:04;9.30;99.90
12119;DHT22;6123;48.864;9.200;2023-11-21T08:03:30;9.20;99.90
12119;DHT22;6123;48.864;9.200;2023-11-21T08:05:59;9.30;99.90
12119;DHT22;6123;48.864;9.200;2023-11-21T08:08:25;9.30;99.90
12119;DHT22;6123;48.864;9.200;2023-11-21T08:10:51;9.40;99.90
12119;DHT22;6123;48.864;9.200;2023-11-21T08:13:27;9.50;99.90
12119;DHT22;6123;48.864;9.200;2023-11-21T08:15:54;9.50;99.90
12119;DHT22;6123;48.864;9.200;2023-11-21T08:18:20;9.60;99.90
12119;DHT22;6123;48.864;9.200;2023-11-21T08:20:45;9.60;99.90
12119;DHT22;6123;48.864;9.200;2023-11-21T08:23:15;9.70;99.90
12119;DHT22;6123;48.864;9.200;2023-11-21T08:25:45;9.80;99.90
12119;DHT22;6123;48.864;9.200;2023-11-21T08:28:11;9.80;99.90
12119;DHT22;6123;48.864;9.200;2023-11-21T08:30:36;9.90;99.90
12119;DHT22;6123;48.864;9.200;2023-11-21T08:33:02;10.00;99.90
12119;DHT22;6123;48.864;9.200;2023-11-21T08:35:29;10.10;99.90
12119;DHT22;6123;48.864;9.200;2023-11-21T08:37:55;10.10;99.90
12119;DHT22;6123;48.864;9.200;2023-11-21T08:40:21;10.10;99.90
12119;DHT22;6123;48.864;9.200;2023-11-21T08:42:47;10.10;99.90
12119;DHT22;6123;48.864;9.200;2023-11-21T08:45:14;10.20;99.90
12119;DHT22;6123;48.864;9.200;2023-11-21T08:47:40;10.20;99.90
12119;DHT22;6123;48.864;9.200;2023-11-21T08:50:07;10.20;99.90
12119;DHT22;6123;48.864;9.200;2023-11-21T08:52:33;10.20;99.90
12119;DHT22;6123;48.864;9.200;2023-11-21T08:54:59;10.10;99.90
12119;DHT22;6123;48.864;9.200;2023-11-21T08:57:28;10.10;99.90
12119;DHT22;6123;48.864;9.200;2023-11-21T08:59:53;10.20;99.90
12119;DHT22;6123;48.864;9.200;2023-11-21T09:02:25;10.20;99.90
12119;DHT22;6123;48.864;9.200;2023-11-21T09:04:51;10.20;99.90
12119;DHT22;6123;48.864;9.200;2023-11-21T09:07:18;10.20;99.90
12119;DHT22;6123;48.864;9.200;2023-11-21T09:09:46;10.20;99.90
12119;DHT22;6123;48.864;9.200;2023-11-21T09:12:12;10.00;99.90
12119;DHT22;6123;48.864;9.200;2023-11-21T09:14:38;9.80;99.90
12119;DHT22;6123;48.864;9.200;2023-11-21T09:17:04;9.70;99.90
12119;DHT22;6123;48.864;9.200;2023-11-21T09:19:36;9.80;99.90
12119;DHT22;6123;48.864;9.200;2023-11-21T09:22:02;10.00;99.90
12119;DHT22;6123;48.864;9.200;2023-11-21T09:24:27;9.70;99.90
12119;DHT22;6123;48.864;9.200;2023-11-21T09:26:53;9.60;99.90
12119;DHT22;6123;48.864;9.200;2023-11-21T09:29:18;9.70;99.90
12119;DHT22;6123;48.864;9.200;2023-11-21T09:31:44;9.60;99.90
12119;DHT22;6123;48.864;9.200;2023-11-21T09:34:10;9.70;99.90
12119;DHT22;6123;48.864;9.200;2023-11-21T09:36:36;9.80;99.90
12119;DHT22;6123;48.864;9.200;2023-11-21T09:39:04;9.70;99.90
12119;DHT22;6123;48.864;9.200;2023-11-21T09:44:13;9.90;99.90
12119;DHT22;6123;48.864;9.200;2023-11-21T09:46:42;10.00;99.90
12119;DHT22;6123;48.864;9.200;2023-11-21T09:49:12;9.90;99.90
12119;DHT22;6123;48.864;9.200;2023-11-21T09:51:43;9.90;99.90
12119;DHT22;6123;48.864;9.200;2023-11-21T09:54:10;9.80;99.90
12119;DHT22;6123;48.864;9.200;2023-11-21T09:56:37;9.70;99.90
12119;DHT22;6123;48.864;9.200;2023-11-21T09:59:03;9.70;99.90
12119;DHT22;6123;48.864;9.200;2023-11-21T10:01:33;9.80;99.90
12119;DHT22;6123;48.864;9.200;2023-11-21T10:04:01;9.70;99.90
12119;DHT22;6123;48.864;9.200;2023-11-21T10:06:26;9.70;99.90
12119;DHT22;6123;48.864;9.200;2023-11-21T10:08:54;9.70;99.90
12119;DHT22;6123;48.864;9.200;2023-11-21T10:11:24;9.70;99.90
12119;DHT22;6123;48.864;9.200;2023-11-21T10:13:53;9.70;99.90
12119;DHT22;6123;48.864;9.200;2023-11-21T10:16:19;9.50;99.90
12119;DHT22;6123;48.864;9.200;2023-11-21T10:18:48;9.50;99.90
12119;DHT22;6123;48.864;9.200;2023-11-21T10:21:15;9.50;99.90
12119;DHT22;6123;48.864;9.200;2023-11-21T10:23:40;9.60;99.90
12119;DHT22;6123;48.864;9.200;2023-11-21T10:26:07;9.70;99.90
12119;DHT22;6123;48.864;9.200;2023-11-21T10:28:35;9.70;99.90
12119;DHT22;6123;48.864;9.200;2023-11-21T10:31:02;9.70;99.90
12119;DHT22;6123;48.864;9.200;2023-11-21T10:33:32;9.80;99.90
12119;DHT22;6123;48.864;9.200;2023-11-21T10:35:58;9.80;99.90
12119;DHT22;6123;48.864;9.200;2023-11-21T10:38:25;9.90;99.90
12119;DHT22;6123;48.864;9.200;2023-11-21T10:40:52;9.90;99.90
12119;DHT22;6123;48.864;9.200;2023-11-21T10:43:21;10.10;99.90
12119;DHT22;6123;48.864;9.200;2023-11-21T10:45:49;10.00;99.90
12119;DHT22;6123;48.864;9.200;2023-11-21T10:48:15;10.00;99.90
12119;DHT22;6123;48.864;9.200;2023-11-21T10:50:41;9.80;99.90
12119;DHT22;6123;48.864;9.200;2023-11-21T10:53:07;9.80;99.90
12119;DHT22;6123;48.864;9.200;2023-11-21T10:55:34;9.70;99.90
12119;DHT22;6123;48.864;9.200;2023-11-21T10:58:01;9.60;99.90
12119;DHT22;6123;48.864;9.200;2023-11-21T11:00:28;9.80;99.90
12119;DHT22;6123;48.864;9.200;2023-11-21T11:02:55;10.00;99.90
12119;DHT22;6123;48.864;9.200;2023-11-21T11:05:22;10.10;99.90
12119;DHT22;6123;48.864;9.200;2023-11-21T11:07:50;10.20;99.90
12119;DHT22;6123;48.864;9.200;2023-11-21T11:10:21;10.40;99.90
12119;DHT22;6123;48.864;9.200;2023-11-21T11:12:48;10.40;99.90
12119;DHT22;6123;48.864;9.200;2023-11-21T11:15:16;10.50;99.90
12119;DHT22;6123;48.864;9.200;2023-11-21T11:17:42;10.50;99.90
12119;DHT22;6123;48.864;9.200;2023-11-21T11:20:12;10.60;99.90
12119;DHT22;6123;48.864;9.200;2023-11-21T11:25:45;10.70;99.90
12119;DHT22;6123;48.864;9.200;2023-11-21T11:28:34;10.60;99.90
12119;DHT22;6123;48.864;9.200;2023-11-21T11:34:06;10.20;99.90
12119;DHT22;6123;48.864;9.200;2023-11-21T11:36:44;9.90;99.90
12119;DHT22;6123;48.864;9.200;2023-11-21T11:39:34;9.90;99.90
12119;DHT22;6123;48.864;9.200;2023-11-21T11:42:02;9.90;99.90
12119;DHT22;6123;48.864;9.200;2023-11-21T11:47:21;9.80;99.90
12119;DHT22;6123;48.864;9.200;2023-11-21T11:52:36;9.80;99.90
12119;DHT22;6123;48.864;9.200;2023-11-21T11:55:03;9.70;99.90
12119;DHT22;6123;48.864;9.200;2023-11-21T11:57:33;9.80;99.90
12119;DHT22;6123;48.864;9.200;2023-11-21T12:02:42;9.80;99.90
12119;DHT22;6123;48.864;9.200;2023-11-21T12:05:15;10.00;99.90
12119;DHT22;6123;48.864;9.200;2023-11-21T12:07:51;10.20;99.90
12119;DHT22;6123;48.864;9.200;2023-11-21T12:10:24;10.40;99.90
12119;DHT22;6123;48.864;9.200;2023-11-21T12:12:55;10.40;99.90
12119;DHT22;6123;48.864;9.200;2023-11-21T12:15:21;10.40;99.90
12119;DHT22;6123;48.864;9.200;2023-11-21T12:17:47;10.60;99.90
12119;DHT22;6123;48.864;9.200;2023-11-21T12:20:15;10.60;99.90
12119;DHT22;6123;48.864;9.200;2023-11-21T12:22:53;10.60;99.90
12119;DHT22;6123;48.864;9.200;2023-11-21T12:25:21;10.60;99.90
12119;DHT22;6123;48.864;9.200;2023-11-21T12:27:50;10.60;99.90
12119;DHT22;6123;48.864;9.200;2023-11-21T12:30:18;10.70;99.90
12119;DHT22;6123;48.864;9.200;2023-11-21T12:32:44;10.70;99.90
12119;DHT22;6123;48.864;9.200;2023-11-21T12:35:12;10.60;99.90
12119;DHT22;6123;48.864;9.200;2023-11-21T12:37:41;10.70;99.90
12119;DHT22;6123;48.864;9.200;2023-11-21T12:40:09;11.00;99.90
12119;DHT22;6123;48.864;9.200;2023-11-21T12:42:38;11.10;99.90
12119;DHT22;6123;48.864;9.200;2023-11-21T12:47:50;11.20;99.90
12119;DHT22;6123;48.864;9.200;2023-11-21T12:50:19;11.10;99.90
12119;DHT22;6123;48.864;9.200;2023-11-21T12:52:47;11.20;99.90
12119;DHT22;6123;48.864;9.200;2023-11-21T12:55:21;11.20;99.90
12119;DHT22;6123;48.864;9.200;2023-11-21T12:57:50;11.10;99.90
12119;DHT22;6123;48.864;9.200;2023-11-21T13:00:45;10.60;99.90
12119;DHT22;6123;48.864;9.200;2023-11-21T13:03:12;10.00;99.90
12119;DHT22;6123;48.864;9.200;2023-11-21T13:05:42;10.00;99.90
12119;DHT22;6123;48.864;9.200;2023-11-21T13:08:10;10.00;99.90
12119;DHT22;6123;48.864;9.200;2023-11-21T13:10:43;10.00;99.90
12119;DHT22;6123;48.864;9.200;2023-11-21T13:13:11;9.90;99.90
12119;DHT22;6123;48.864;9.200;2023-11-21T13:15:54;9.90;99.90
12119;DHT22;6123;48.864;9.200;2023-11-21T13:18:23;9.90;99.90
12119;DHT22;6123;48.864;9.200;2023-11-21T13:20:50;9.90;99.90
12119;DHT22;6123;48.864;9.200;2023-11-21T13:23:16;9.90;99.90
12119;DHT22;6123;48.864;9.200;2023-11-21T13:25:42;9.70;99.90
12119;DHT22;6123;48.864;9.200;2023-11-21T13:28:08;9.70;99.90
12119;DHT22;6123;48.864;9.200;2023-11-21T13:30:37;9.70;99.90
12119;DHT22;6123;48.864;9.200;2023-11-21T13:33:06;9.70;99.90
12119;DHT22;6123;48.864;9.200;2023-11-21T13:35:37;9.80;99.90
12119;DHT22;6123;48.864;9.200;2023-11-21T13:38:11;9.90;99.90
12119;DHT22;6123;48.864;9.200;2023-11-21T13:40:38;9.80;99.90
12119;DHT22;6123;48.864;9.200;2023-11-21T13:43:17;9.90;99.90
12119;DHT22;6123;48.864;9.200;2023-11-21T13:45:48;9.90;99.90
12119;DHT22;6123;48.864;9.200;2023-11-21T13:48:17;9.90;99.90
12119;DHT22;6123;48.864;9.200;2023-11-21T13:50:50;9.90;99.90
12119;DHT22;6123;48.864;9.200;2023-11-21T13:53:34;9.90;99.90
12119;DHT22;6123;48.864;9.200;2023-11-21T13:56:02;9.90;99.90
12119;DHT22;6123;48.864;9.200;2023-11-21T13:58:27;10.50;99.90
12119;DHT22;6123;48.864;9.200;2023-11-21T14:01:12;9.90;99.90
12119;DHT22;6123;48.864;9.200;2023-11-21T14:03:56;9.80;99.90
12119;DHT22;6123;48.864;9.200;2023-11-21T14:06:37;9.80;99.90
12119;DHT22;6123;48.864;9.200;2023-11-21T14:09:16;9.80;99.90
12119;DHT22;6123;48.864;9.200;2023-11-21T14:11:52;9.80;99.90
12119;DHT22;6123;48.864;9.200;2023-11-21T14:14:25;9.80;99.90
12119;DHT22;6123;48.864;9.200;2023-11-21T14:16:51;9.80;99.90
12119;DHT22;6123;48.864;9.200;2023-11-21T14:19:18;9.90;99.90
12119;DHT22;6123;48.864;9.200;2023-11-21T14:21:45;9.90;99.90
12119;DHT22;6123;48.864;9.200;2023-11-21T14:24:14;9.90;99.90
12119;DHT22;6123;48.864;9.200;2023-11-21T14:26:43;9.90;99.90
12119;DHT22;6123;48.864;9.200;2023-11-21T14:29:10;9.90;99.90
12119;DHT22;6123;48.864;9.200;2023-11-21T14:31:39;9.90;99.90
12119;DHT22;6123;48.864;9.200;2023-11-21T14:34:06;10.00;99.90
12119;DHT22;6123;48.864;9.200;2023-11-21T14:36:33;10.00;99.90
12119;DHT22;6123;48.864;9.200;2023-11-21T14:38:59;10.00;99.90
12119;DHT22;6123;48.864;9.200;2023-11-21T14:41:24;10.00;99.90
12119;DHT22;6123;48.864;9.200;2023-11-21T14:43:50;10.00;99.90
12119;DHT22;6123;48.864;9.200;2023-11-21T14:46:16;10.00;99.90
12119;DHT22;6123;48.864;9.200;2023-11-21T14:48:45;10.00;99.90
12119;DHT22;6123;48.864;9.200;2023-11-21T14:51:25;9.90;99.90
12119;DHT22;6123;48.864;9.200;2023-11-21T14:53:58;10.00;99.90
12119;DHT22;6123;48.864;9.200;2023-11-21T14:56:32;9.90;99.90
12119;DHT22;6123;48.864;9.200;2023-11-21T14:59:00;9.80;99.90
12119;DHT22;6123;48.864;9.200;2023-11-21T15:01:31;9.90;99.90
12119;DHT22;6123;48.864;9.200;2023-11-21T15:04:11;9.80;99.90
12119;DHT22;6123;48.864;9.200;2023-11-21T15:07:01;9.90;99.90
12119;DHT22;6123;48.864;9.200;2023-11-21T15:09:28;9.80;99.90
12119;DHT22;6123;48.864;9.200;2023-11-21T15:12:04;9.70;99.90
12119;DHT22;6123;48.864;9.200;2023-11-21T15:14:41;9.60;99.90
12119;DHT22;6123;48.864;9.200;2023-11-21T15:17:07;9.60;99.90
12119;DHT22;6123;48.864;9.200;2023-11-21T15:19:33;9.60;99.90
12119;DHT22;6123;48.864;9.200;2023-11-21T15:21:59;9.50;99.90
12119;DHT22;6123;48.864;9.200;2023-11-21T15:24:25;9.50;99.90
12119;DHT22;6123;48.864;9.200;2023-11-21T15:26:51;9.50;99.90
12119;DHT22;6123;48.864;9.200;2023-11-21T15:29:16;11.80;99.90
12119;DHT22;6123;48.864;9.200;2023-11-21T15:31:42;9.40;99.90
12119;DHT22;6123;48.864;9.200;2023-11-21T15:34:13;9.60;99.90
12119;DHT22;6123;48.864;9.200;2023-11-21T15:36:38;9.40;99.90
12119;DHT22;6123;48.864;9.200;2023-11-21T15:39:04;9.50;99.90
12119;DHT22;6123;48.864;9.200;2023-11-21T15:41:30;9.40;99.90
12119;DHT22;6123;48.864;9.200;2023-11-21T15:43:55;9.30;99.90
12119;DHT22;6123;48.864;9.200;2023-11-21T15:46:21;9.40;99.90
12119;DHT22;6123;48.864;9.200;2023-11-21T15:48:47;9.40;99.90
12119;DHT22;6123;48.864;9.200;2023-11-21T15:51:19;9.40;99.90
12119;DHT22;6123;48.864;9.200;2023-11-21T15:53:45;9.40;99.90
12119;DHT22;6123;48.864;9.200;2023-11-21T15:56:11;9.30;99.90
12119;DHT22;6123;48.864;9.200;2023-11-21T15:58:41;9.30;99.90
12119;DHT22;6123;48.864;9.200;2023-11-21T16:01:11;9.30;99.90
12119;DHT22;6123;48.864;9.200;2023-11-21T16:03:38;9.30;99.90
12119;DHT22;6123;48.864;9.200;2023-11-21T16:06:04;9.20;99.90
12119;DHT22;6123;48.864;9.200;2023-11-21T16:08:30;9.20;99.90
12119;DHT22;6123;48.864;9.200;2023-11-21T16:10:56;9.20;99.90
12119;DHT22;6123;48.864;9.200;2023-11-21T16:13:21;9.20;99.90
12119;DHT22;6123;48.864;9.200;2023-11-21T16:15:48;9.10;99.90
12119;DHT22;6123;48.864;9.200;2023-11-21T16:18:14;9.10;99.90
12119;DHT22;6123;48.864;9.200;2023-11-21T16:20:40;9.10;99.90
12119;DHT22;6123;48.864;9.200;2023-11-21T16:23:06;9.00;99.90